Global Echo — 3FBK5 — position and weather

sailwx.info

Track history (hours):
 
Tides and Currents Weather Stations Pressure Air Temp Water Temp Dewpoint Dewpoint Depression Visibility Wind Speed Wind Dir Waves Ship Positions

Global Echo

Last reported at 2017-Nov-10 13:01 UTC. Time now 2017-Nov-17 21:22 UTC.
Position N 34°45' E 139°34'.

Length 169 m; draft 9 m.

Type: Cargo ship. MMSI: 373900000.

Date/timePositionNaut miles runAvg speedWind from/ knotsBaromVisibWave heightAir tempDewpointWater temp
2017-Nov-10 13:01N 34°45' E 139°34'110.1
2017-Nov-10 12:55N 34°46' E 139°34'410.2
2017-Nov-10 12:30N 34°50' E 139°36'510.4
2017-Nov-10 12:00N 34°55' E 139°38'511.0
2017-Nov-10 11:30N 35°00' E 139°41'510.8
2017-Nov-10 11:00N 35°05' E 139°43'611.2
2017-Nov-10 10:30N 35°10' E 139°45'510.7
2017-Nov-10 10:00N 35°16' E 139°46'612.9
2017-Nov-10 09:30N 35°22' E 139°42'611.8
2017-Nov-10 09:00N 35°27' E 139°46'613.0
2017-Nov-10 08:30N 35°30' E 139°53'812.9
2017-Nov-10 07:53N 35°34' E 140°02'  
2017-Nov-06 22:48N 35°33' E 140°05'2 6.4
2017-Nov-06 22:28N 35°34' E 140°03'2 1.0
2017-Nov-06 20:48N 35°33' E 140°01'  
Track history (hours):
 
Tides and Currents Weather Stations Pressure Air Temp Water Temp Dewpoint Dewpoint Depression Visibility Wind Speed Wind Dir Waves Ship Positions

Global Echo

Last reported at 2017-Nov-10 13:01 UTC. Time now 2017-Nov-17 21:22 UTC.
Position N 34°45' E 139°34'.

Length 169 m; draft 9 m.

Type: Cargo ship. MMSI: 373900000.

Date/timePositionNaut miles runAvg speedWind from/ knotsBaromVisibWave heightAir tempDewpointWater temp
2017-Nov-10 13:01N 34°45' E 139°34'110.1
2017-Nov-10 12:55N 34°46' E 139°34'410.2
2017-Nov-10 12:30N 34°50' E 139°36'510.4
2017-Nov-10 12:00N 34°55' E 139°38'511.0
2017-Nov-10 11:30N 35°00' E 139°41'510.8
2017-Nov-10 11:00N 35°05' E 139°43'611.2
2017-Nov-10 10:30N 35°10' E 139°45'510.7
2017-Nov-10 10:00N 35°16' E 139°46'612.9
2017-Nov-10 09:30N 35°22' E 139°42'611.8
2017-Nov-10 09:00N 35°27' E 139°46'613.0
2017-Nov-10 08:30N 35°30' E 139°53'812.9
2017-Nov-10 07:53N 35°34' E 140°02'  
2017-Nov-06 22:48N 35°33' E 140°05'2 6.4
2017-Nov-06 22:28N 35°34' E 140°03'2 1.0
2017-Nov-06 20:48N 35°33' E 140°01'  

Dump ship's entire track history